sensor_id;sensor_type;location;lat;lon;timestamp;temperature;humidity
55329;DHT22;41205;44.264;19.884;2023-08-06T00:00:09;512.80;2380.80
55329;DHT22;41205;44.264;19.884;2023-08-06T00:02:37;512.90;2380.80
55329;DHT22;41205;44.264;19.884;2023-08-06T00:05:03;512.90;2380.80
55329;DHT22;41205;44.264;19.884;2023-08-06T00:07:29;512.90;2380.80
55329;DHT22;41205;44.264;19.884;2023-08-06T00:09:55;537.60;2406.40
55329;DHT22;41205;44.264;19.884;2023-08-06T00:12:20;537.60;2406.40
55329;DHT22;41205;44.264;19.884;2023-08-06T00:14:50;537.80;2406.40
55329;DHT22;41205;44.264;19.884;2023-08-06T00:17:16;537.60;2406.40
55329;DHT22;41205;44.264;19.884;2023-08-06T00:19:42;537.70;2406.40
55329;DHT22;41205;44.264;19.884;2023-08-06T00:22:08;512.90;2380.80
55329;DHT22;41205;44.264;19.884;2023-08-06T00:24:34;512.90;2380.80
55329;DHT22;41205;44.264;19.884;2023-08-06T00:27:00;512.90;2380.80
55329;DHT22;41205;44.264;19.884;2023-08-06T00:29:26;512.90;2380.80
55329;DHT22;41205;44.264;19.884;2023-08-06T00:31:52;512.90;2380.80
55329;DHT22;41205;44.264;19.884;2023-08-06T00:34:17;512.70;2380.80
55329;DHT22;41205;44.264;19.884;2023-08-06T00:36:43;512.40;2380.80
55329;DHT22;41205;44.264;19.884;2023-08-06T00:39:09;512.50;2380.80
55329;DHT22;41205;44.264;19.884;2023-08-06T00:41:35;512.50;2380.80
55329;DHT22;41205;44.264;19.884;2023-08-06T00:44:00;512.30;2380.80
55329;DHT22;41205;44.264;19.884;2023-08-06T00:46:26;512.50;2380.80
55329;DHT22;41205;44.264;19.884;2023-08-06T00:48:52;512.60;2380.80
55329;DHT22;41205;44.264;19.884;2023-08-06T00:51:19;512.70;2380.80
55329;DHT22;41205;44.264;19.884;2023-08-06T00:53:45;512.60;2380.80
55329;DHT22;41205;44.264;19.884;2023-08-06T00:56:12;512.70;2380.80
55329;DHT22;41205;44.264;19.884;2023-08-06T00:58:39;512.70;2380.80
55329;DHT22;41205;44.264;19.884;2023-08-06T01:01:05;512.80;2380.80
55329;DHT22;41205;44.264;19.884;2023-08-06T01:03:31;512.70;2380.80
55329;DHT22;41205;44.264;19.884;2023-08-06T01:05:57;512.80;2380.80
55329;DHT22;41205;44.264;19.884;2023-08-06T01:08:46;512.80;2380.80
55329;DHT22;41205;44.264;19.884;2023-08-06T01:14:30;512.90;2380.80
55329;DHT22;41205;44.264;19.884;2023-08-06T01:17:00;512.70;2380.80
55329;DHT22;41205;44.264;19.884;2023-08-06T01:19:26;512.60;2380.80
55329;DHT22;41205;44.264;19.884;2023-08-06T01:21:52;512.70;2380.80
55329;DHT22;41205;44.264;19.884;2023-08-06T01:24:18;512.70;2380.80
55329;DHT22;41205;44.264;19.884;2023-08-06T01:26:57;512.60;2380.80
55329;DHT22;41205;44.264;19.884;2023-08-06T01:29:48;512.70;2380.80
55329;DHT22;41205;44.264;19.884;2023-08-06T01:32:18;512.60;2380.80
55329;DHT22;41205;44.264;19.884;2023-08-06T01:34:46;512.70;2380.80
55329;DHT22;41205;44.264;19.884;2023-08-06T01:37:13;512.80;2380.80
55329;DHT22;41205;44.264;19.884;2023-08-06T01:39:42;512.70;2380.80
55329;DHT22;41205;44.264;19.884;2023-08-06T01:42:09;512.90;2380.80
55329;DHT22;41205;44.264;19.884;2023-08-06T01:44:34;512.90;2380.80
55329;DHT22;41205;44.264;19.884;2023-08-06T01:47:00;512.90;2380.80
55329;DHT22;41205;44.264;19.884;2023-08-06T01:49:26;512.90;2380.80
55329;DHT22;41205;44.264;19.884;2023-08-06T01:51:52;512.80;2380.80
55329;DHT22;41205;44.264;19.884;2023-08-06T01:54:17;512.70;2380.80
55329;DHT22;41205;44.264;19.884;2023-08-06T01:56:43;512.70;2380.80
55329;DHT22;41205;44.264;19.884;2023-08-06T01:59:09;512.70;2380.80
55329;DHT22;41205;44.264;19.884;2023-08-06T02:01:34;512.80;2380.80
55329;DHT22;41205;44.264;19.884;2023-08-06T02:04:00;512.70;2380.80
55329;DHT22;41205;44.264;19.884;2023-08-06T02:06:26;512.80;2380.80
55329;DHT22;41205;44.264;19.884;2023-08-06T02:08:51;512.80;2380.80
55329;DHT22;41205;44.264;19.884;2023-08-06T02:11:17;512.80;2380.80
55329;DHT22;41205;44.264;19.884;2023-08-06T02:13:43;512.80;2380.80
55329;DHT22;41205;44.264;19.884;2023-08-06T02:16:09;512.70;2380.80
55329;DHT22;41205;44.264;19.884;2023-08-06T02:18:35;512.60;2380.80
55329;DHT22;41205;44.264;19.884;2023-08-06T02:21:01;512.60;2380.80
55329;DHT22;41205;44.264;19.884;2023-08-06T02:23:27;512.70;2380.80
55329;DHT22;41205;44.264;19.884;2023-08-06T02:31:25;512.60;2380.80
55329;DHT22;41205;44.264;19.884;2023-08-06T02:33:51;512.60;2380.80
55329;DHT22;41205;44.264;19.884;2023-08-06T02:36:19;512.50;2380.80
55329;DHT22;41205;44.264;19.884;2023-08-06T02:38:44;512.50;2380.80
55329;DHT22;41205;44.264;19.884;2023-08-06T02:41:10;512.40;2380.80
55329;DHT22;41205;44.264;19.884;2023-08-06T02:43:36;512.20;2380.80
55329;DHT22;41205;44.264;19.884;2023-08-06T02:46:01;512.10;2380.80
55329;DHT22;41205;44.264;19.884;2023-08-06T02:48:27;487.30;2380.80
55329;DHT22;41205;44.264;19.884;2023-08-06T02:50:56;487.30;2380.80
55329;DHT22;41205;44.264;19.884;2023-08-06T02:53:22;487.20;2380.80
55329;DHT22;41205;44.264;19.884;2023-08-06T02:55:48;487.20;2380.80
55329;DHT22;41205;44.264;19.884;2023-08-06T02:58:14;487.10;2380.80
55329;DHT22;41205;44.264;19.884;2023-08-06T03:00:40;487.00;2380.80
55329;DHT22;41205;44.264;19.884;2023-08-06T03:03:06;487.10;2380.80
55329;DHT22;41205;44.264;19.884;2023-08-06T03:05:32;487.00;2380.80
55329;DHT22;41205;44.264;19.884;2023-08-06T03:07:58;487.00;2380.80
55329;DHT22;41205;44.264;19.884;2023-08-06T03:10:23;487.00;2380.80
55329;DHT22;41205;44.264;19.884;2023-08-06T03:12:49;486.90;2380.80
55329;DHT22;41205;44.264;19.884;2023-08-06T03:15:15;486.90;2380.80
55329;DHT22;41205;44.264;19.884;2023-08-06T03:17:40;486.90;2380.80
55329;DHT22;41205;44.264;19.884;2023-08-06T03:20:06;486.90;2380.80
55329;DHT22;41205;44.264;19.884;2023-08-06T03:22:32;486.90;2380.80
55329;DHT22;41205;44.264;19.884;2023-08-06T03:24:58;486.90;2380.80
55329;DHT22;41205;44.264;19.884;2023-08-06T03:27:24;486.90;2380.80
55329;DHT22;41205;44.264;19.884;2023-08-06T03:29:49;486.90;2380.80
55329;DHT22;41205;44.264;19.884;2023-08-06T03:32:15;486.80;2380.80
55329;DHT22;41205;44.264;19.884;2023-08-06T03:34:41;486.90;2380.80
55329;DHT22;41205;44.264;19.884;2023-08-06T03:37:07;486.90;2380.80
55329;DHT22;41205;44.264;19.884;2023-08-06T03:39:33;486.90;2380.80
55329;DHT22;41205;44.264;19.884;2023-08-06T03:41:59;486.80;2380.80
55329;DHT22;41205;44.264;19.884;2023-08-06T03:44:24;486.90;2380.80
55329;DHT22;41205;44.264;19.884;2023-08-06T03:46:52;486.80;2380.80
55329;DHT22;41205;44.264;19.884;2023-08-06T03:49:18;487.00;2380.80
55329;DHT22;41205;44.264;19.884;2023-08-06T03:51:43;487.00;2380.80
55329;DHT22;41205;44.264;19.884;2023-08-06T03:54:09;487.00;2380.80
55329;DHT22;41205;44.264;19.884;2023-08-06T03:56:35;487.00;2380.80
55329;DHT22;41205;44.264;19.884;2023-08-06T03:59:00;487.00;2380.80
55329;DHT22;41205;44.264;19.884;2023-08-06T04:01:26;487.10;2380.80
55329;DHT22;41205;44.264;19.884;2023-08-06T04:03:52;487.10;2380.80
55329;DHT22;41205;44.264;19.884;2023-08-06T04:06:17;487.10;2380.80
55329;DHT22;41205;44.264;19.884;2023-08-06T04:08:43;487.20;2380.80
55329;DHT22;41205;44.264;19.884;2023-08-06T04:11:09;487.20;2380.80
55329;DHT22;41205;44.264;19.884;2023-08-06T04:13:34;512.00;2380.80
55329;DHT22;41205;44.264;19.884;2023-08-06T04:16:03;512.00;2380.80
55329;DHT22;41205;44.264;19.884;2023-08-06T04:18:29;512.10;2380.80
55329;DHT22;41205;44.264;19.884;2023-08-06T04:20:55;512.20;2380.80
55329;DHT22;41205;44.264;19.884;2023-08-06T04:23:23;512.30;2380.80
55329;DHT22;41205;44.264;19.884;2023-08-06T04:25:49;512.40;2380.80
55329;DHT22;41205;44.264;19.884;2023-08-06T04:28:14;512.50;2380.80
55329;DHT22;41205;44.264;19.884;2023-08-06T04:30:40;512.70;2380.80
55329;DHT22;41205;44.264;19.884;2023-08-06T04:33:06;512.80;2380.80
55329;DHT22;41205;44.264;19.884;2023-08-06T04:35:31;512.80;2380.80
55329;DHT22;41205;44.264;19.884;2023-08-06T04:37:57;512.80;2380.80
55329;DHT22;41205;44.264;19.884;2023-08-06T04:40:23;512.90;2380.80
55329;DHT22;41205;44.264;19.884;2023-08-06T04:42:48;537.60;2406.40
55329;DHT22;41205;44.264;19.884;2023-08-06T04:45:14;537.90;2406.40
55329;DHT22;41205;44.264;19.884;2023-08-06T04:47:40;537.90;2406.40
55329;DHT22;41205;44.264;19.884;2023-08-06T04:50:06;537.90;2406.40
55329;DHT22;41205;44.264;19.884;2023-08-06T04:52:31;537.70;2406.40
55329;DHT22;41205;44.264;19.884;2023-08-06T04:54:57;512.90;2380.80
55329;DHT22;41205;44.264;19.884;2023-08-06T04:57:23;537.70;2406.40
55329;DHT22;41205;44.264;19.884;2023-08-06T04:59:49;537.70;2406.40
55329;DHT22;41205;44.264;19.884;2023-08-06T05:02:15;537.80;2406.40
55329;DHT22;41205;44.264;19.884;2023-08-06T05:04:40;537.90;2406.40
55329;DHT22;41205;44.264;19.884;2023-08-06T05:07:06;537.80;2406.40
55329;DHT22;41205;44.264;19.884;2023-08-06T05:09:32;537.70;2406.40
55329;DHT22;41205;44.264;19.884;2023-08-06T05:12:00;537.70;2406.40
55329;DHT22;41205;44.264;19.884;2023-08-06T05:14:26;537.60;2406.40
55329;DHT22;41205;44.264;19.884;2023-08-06T05:16:51;537.60;2406.40
55329;DHT22;41205;44.264;19.884;2023-08-06T05:19:17;537.60;2406.40
55329;DHT22;41205;44.264;19.884;2023-08-06T05:21:43;537.70;2406.40
55329;DHT22;41205;44.264;19.884;2023-08-06T05:24:08;537.80;2406.40
55329;DHT22;41205;44.264;19.884;2023-08-06T05:26:34;537.80;2406.40
55329;DHT22;41205;44.264;19.884;2023-08-06T05:29:00;538.00;2406.40
55329;DHT22;41205;44.264;19.884;2023-08-06T05:31:26;538.00;2406.40
55329;DHT22;41205;44.264;19.884;2023-08-06T05:33:54;538.20;2406.40
55329;DHT22;41205;44.264;19.884;2023-08-06T05:36:19;563.20;2432.00
55329;DHT22;41205;44.264;19.884;2023-08-06T05:38:46;563.60;2432.00
55329;DHT22;41205;44.264;19.884;2023-08-06T05:41:12;589.20;2432.00
55329;DHT22;41205;44.264;19.884;2023-08-06T05:43:38;589.70;2432.00
55329;DHT22;41205;44.264;19.884;2023-08-06T05:46:03;614.40;2432.00
55329;DHT22;41205;44.264;19.884;2023-08-06T05:48:29;615.10;2432.00
55329;DHT22;41205;44.264;19.884;2023-08-06T05:50:55;640.00;2432.00
55329;DHT22;41205;44.264;19.884;2023-08-06T05:53:21;666.20;2432.00
55329;DHT22;41205;44.264;19.884;2023-08-06T05:56:10;666.00;2432.00
55329;DHT22;41205;44.264;19.884;2023-08-06T05:58:55;666.30;2432.00
55329;DHT22;41205;44.264;19.884;2023-08-06T06:01:42;743.00;2432.00
55329;DHT22;41205;44.264;19.884;2023-08-06T06:07:55;742.80;2355.20
55329;DHT22;41205;44.264;19.884;2023-08-06T06:10:25;691.40;2432.00
55329;DHT22;41205;44.264;19.884;2023-08-06T06:12:50;665.60;2432.00
55329;DHT22;41205;44.264;19.884;2023-08-06T06:15:16;640.40;2432.00
55329;DHT22;41205;44.264;19.884;2023-08-06T06:17:42;640.40;2432.00
55329;DHT22;41205;44.264;19.884;2023-08-06T06:20:07;743.00;2432.00
55329;DHT22;41205;44.264;19.884;2023-08-06T06:22:33;845.20;2099.20
55329;DHT22;41205;44.264;19.884;2023-08-06T06:24:59;819.30;2073.60
55329;DHT22;41205;44.264;19.884;2023-08-06T06:27:25;793.60;2124.80
55329;DHT22;41205;44.264;19.884;2023-08-06T06:29:50;743.00;2201.60
55329;DHT22;41205;44.264;19.884;2023-08-06T06:32:18;717.30;2278.40
55329;DHT22;41205;44.264;19.884;2023-08-06T06:34:43;716.90;2329.60
55329;DHT22;41205;44.264;19.884;2023-08-06T06:37:09;716.90;2406.40
55329;DHT22;41205;44.264;19.884;2023-08-06T06:39:34;692.10;2432.00
55329;DHT22;41205;44.264;19.884;2023-08-06T06:42:00;691.30;2432.00
55329;DHT22;41205;44.264;19.884;2023-08-06T06:44:26;666.30;2432.00
55329;DHT22;41205;44.264;19.884;2023-08-06T06:46:52;666.10;2432.00
55329;DHT22;41205;44.264;19.884;2023-08-06T06:49:17;640.90;2432.00
55329;DHT22;41205;44.264;19.884;2023-08-06T06:51:43;640.50;2432.00
55329;DHT22;41205;44.264;19.884;2023-08-06T06:54:08;640.60;2432.00
55329;DHT22;41205;44.264;19.884;2023-08-06T06:56:34;640.70;2432.00
55329;DHT22;41205;44.264;19.884;2023-08-06T06:59:00;640.90;2432.00
55329;DHT22;41205;44.264;19.884;2023-08-06T07:01:26;666.00;2432.00
55329;DHT22;41205;44.264;19.884;2023-08-06T07:03:51;716.80;2432.00
55329;DHT22;41205;44.264;19.884;2023-08-06T07:06:17;819.60;2176.00
55329;DHT22;41205;44.264;19.884;2023-08-06T07:08:44;896.90;1868.80
55329;DHT22;41205;44.264;19.884;2023-08-06T07:11:10;871.20;1868.80
55329;DHT22;41205;44.264;19.884;2023-08-06T07:13:35;844.80;1996.80
55329;DHT22;41205;44.264;19.884;2023-08-06T07:16:01;819.70;1971.20
55329;DHT22;41205;44.264;19.884;2023-08-06T07:18:27;819.30;1996.80
55329;DHT22;41205;44.264;19.884;2023-08-06T07:20:55;794.10;2048.00
55329;DHT22;41205;44.264;19.884;2023-08-06T07:23:22;768.60;2073.60
55329;DHT22;41205;44.264;19.884;2023-08-06T07:25:48;743.10;2099.20
55329;DHT22;41205;44.264;19.884;2023-08-06T07:28:15;742.90;2150.40
55329;DHT22;41205;44.264;19.884;2023-08-06T07:30:42;742.50;2176.00
55329;DHT22;41205;44.264;19.884;2023-08-06T07:33:07;717.70;2201.60
55329;DHT22;41205;44.264;19.884;2023-08-06T07:35:34;717.60;2201.60
55329;DHT22;41205;44.264;19.884;2023-08-06T07:37:59;717.40;2227.20
55329;DHT22;41205;44.264;19.884;2023-08-06T07:40:25;717.30;2252.80
55329;DHT22;41205;44.264;19.884;2023-08-06T07:42:51;716.90;2278.40
55329;DHT22;41205;44.264;19.884;2023-08-06T07:45:17;716.80;2304.00
55329;DHT22;41205;44.264;19.884;2023-08-06T07:47:42;717.00;2278.40
55329;DHT22;41205;44.264;19.884;2023-08-06T07:50:09;743.00;2176.00
55329;DHT22;41205;44.264;19.884;2023-08-06T07:52:35;870.50;1894.40
55329;DHT22;41205;44.264;19.884;2023-08-06T07:55:01;870.60;1817.60
55329;DHT22;41205;44.264;19.884;2023-08-06T07:57:30;844.90;1894.40
55329;DHT22;41205;44.264;19.884;2023-08-06T07:59:56;819.60;1894.40
55329;DHT22;41205;44.264;19.884;2023-08-06T08:02:22;794.00;1971.20
55329;DHT22;41205;44.264;19.884;2023-08-06T08:04:48;768.90;1971.20
55329;DHT22;41205;44.264;19.884;2023-08-06T08:07:14;820.00;1920.00
55329;DHT22;41205;44.264;19.884;2023-08-06T08:09:39;870.90;1843.20
55329;DHT22;41205;44.264;19.884;2023-08-06T08:12:05;896.40;1766.40
55329;DHT22;41205;44.264;19.884;2023-08-06T08:14:31;896.80;1740.80
55329;DHT22;41205;44.264;19.884;2023-08-06T08:17:03;870.50;1817.60
55329;DHT22;41205;44.264;19.884;2023-08-06T08:21:58;819.20;1920.00
55329;DHT22;41205;44.264;19.884;2023-08-06T08:24:25;768.80;1971.20
55329;DHT22;41205;44.264;19.884;2023-08-06T08:26:51;768.00;2022.40
55329;DHT22;41205;44.264;19.884;2023-08-06T08:29:17;717.70;2099.20
55329;DHT22;41205;44.264;19.884;2023-08-06T08:31:43;716.90;2176.00
55329;DHT22;41205;44.264;19.884;2023-08-06T08:34:09;692.00;2176.00
55329;DHT22;41205;44.264;19.884;2023-08-06T08:36:34;691.90;2150.40
55329;DHT22;41205;44.264;19.884;2023-08-06T08:39:00;717.60;2176.00
55329;DHT22;41205;44.264;19.884;2023-08-06T08:41:29;743.00;2124.80
55329;DHT22;41205;44.264;19.884;2023-08-06T08:43:55;768.60;2022.40
55329;DHT22;41205;44.264;19.884;2023-08-06T08:46:26;794.00;1920.00
55329;DHT22;41205;44.264;19.884;2023-08-06T08:48:53;794.40;1894.40
55329;DHT22;41205;44.264;19.884;2023-08-06T08:51:19;819.30;1894.40
55329;DHT22;41205;44.264;19.884;2023-08-06T08:53:47;794.50;1920.00
55329;DHT22;41205;44.264;19.884;2023-08-06T08:56:15;794.20;1920.00
55329;DHT22;41205;44.264;19.884;2023-08-06T08:58:41;794.20;1920.00
55329;DHT22;41205;44.264;19.884;2023-08-06T09:01:09;793.90;1894.40
55329;DHT22;41205;44.264;19.884;2023-08-06T09:03:36;768.80;1920.00
55329;DHT22;41205;44.264;19.884;2023-08-06T09:06:02;743.30;1971.20
55329;DHT22;41205;44.264;19.884;2023-08-06T09:08:34;743.00;2022.40
55329;DHT22;41205;44.264;19.884;2023-08-06T09:11:01;742.50;2099.20
55329;DHT22;41205;44.264;19.884;2023-08-06T09:13:28;717.60;2099.20
55329;DHT22;41205;44.264;19.884;2023-08-06T09:15:54;717.00;2150.40
55329;DHT22;41205;44.264;19.884;2023-08-06T09:18:39;716.80;2150.40
55329;DHT22;41205;44.264;19.884;2023-08-06T09:21:05;716.80;2201.60
55329;DHT22;41205;44.264;19.884;2023-08-06T09:23:31;692.10;2201.60
55329;DHT22;41205;44.264;19.884;2023-08-06T09:25:58;716.90;2201.60
55329;DHT22;41205;44.264;19.884;2023-08-06T09:28:29;717.00;2176.00
55329;DHT22;41205;44.264;19.884;2023-08-06T09:31:01;717.00;2176.00
55329;DHT22;41205;44.264;19.884;2023-08-06T09:33:29;717.60;2150.40
55329;DHT22;41205;44.264;19.884;2023-08-06T09:35:55;742.50;2124.80
55329;DHT22;41205;44.264;19.884;2023-08-06T09:38:20;742.50;2150.40
55329;DHT22;41205;44.264;19.884;2023-08-06T09:40:47;742.70;2099.20
55329;DHT22;41205;44.264;19.884;2023-08-06T09:43:12;742.50;2073.60
55329;DHT22;41205;44.264;19.884;2023-08-06T09:45:39;742.80;2073.60
55329;DHT22;41205;44.264;19.884;2023-08-06T09:48:06;743.00;2048.00
55329;DHT22;41205;44.264;19.884;2023-08-06T09:50:35;742.80;2073.60
55329;DHT22;41205;44.264;19.884;2023-08-06T09:53:03;742.50;2048.00
55329;DHT22;41205;44.264;19.884;2023-08-06T09:55:29;717.60;2022.40
55329;DHT22;41205;44.264;19.884;2023-08-06T09:57:55;717.50;2048.00
55329;DHT22;41205;44.264;19.884;2023-08-06T10:00:21;717.70;1996.80
55329;DHT22;41205;44.264;19.884;2023-08-06T10:02:48;717.20;2048.00
55329;DHT22;41205;44.264;19.884;2023-08-06T10:05:15;717.10;2124.80
55329;DHT22;41205;44.264;19.884;2023-08-06T10:07:43;716.90;2201.60
55329;DHT22;41205;44.264;19.884;2023-08-06T10:10:09;691.80;2252.80
55329;DHT22;41205;44.264;19.884;2023-08-06T10:12:47;691.50;2252.80
55329;DHT22;41205;44.264;19.884;2023-08-06T10:15:15;691.50;2252.80
55329;DHT22;41205;44.264;19.884;2023-08-06T10:17:42;691.20;2380.80
55329;DHT22;41205;44.264;19.884;2023-08-06T10:20:09;691.30;2380.80
55329;DHT22;41205;44.264;19.884;2023-08-06T10:22:35;666.30;2432.00
55329;DHT22;41205;44.264;19.884;2023-08-06T10:25:02;666.30;2432.00
55329;DHT22;41205;44.264;19.884;2023-08-06T10:27:35;666.10;2432.00
55329;DHT22;41205;44.264;19.884;2023-08-06T10:32:50;665.90;2432.00
55329;DHT22;41205;44.264;19.884;2023-08-06T10:35:51;665.80;2432.00
55329;DHT22;41205;44.264;19.884;2023-08-06T10:38:20;665.90;2432.00
55329;DHT22;41205;44.264;19.884;2023-08-06T10:40:49;666.20;2432.00
55329;DHT22;41205;44.264;19.884;2023-08-06T10:46:00;691.20;2432.00
55329;DHT22;41205;44.264;19.884;2023-08-06T10:48:45;666.50;2432.00
55329;DHT22;41205;44.264;19.884;2023-08-06T10:51:12;666.30;2432.00
55329;DHT22;41205;44.264;19.884;2023-08-06T10:53:42;665.70;2432.00
55329;DHT22;41205;44.264;19.884;2023-08-06T10:56:18;640.80;2432.00
55329;DHT22;41205;44.264;19.884;2023-08-06T10:58:45;640.70;2432.00
55329;DHT22;41205;44.264;19.884;2023-08-06T11:01:12;640.30;2432.00
55329;DHT22;41205;44.264;19.884;2023-08-06T11:03:38;615.20;2432.00
55329;DHT22;41205;44.264;19.884;2023-08-06T11:06:07;614.80;2432.00
55329;DHT22;41205;44.264;19.884;2023-08-06T11:08:37;614.40;2432.00
55329;DHT22;41205;44.264;19.884;2023-08-06T11:11:13;614.50;2432.00
55329;DHT22;41205;44.264;19.884;2023-08-06T11:13:43;614.40;2432.00
55329;DHT22;41205;44.264;19.884;2023-08-06T11:16:09;614.40;2432.00
55329;DHT22;41205;44.264;19.884;2023-08-06T11:18:36;589.60;2432.00
55329;DHT22;41205;44.264;19.884;2023-08-06T11:21:02;589.30;2432.00
55329;DHT22;41205;44.264;19.884;2023-08-06T11:23:29;589.30;2432.00
55329;DHT22;41205;44.264;19.884;2023-08-06T11:25:57;589.10;2432.00
55329;DHT22;41205;44.264;19.884;2023-08-06T11:28:22;588.90;2432.00
55329;DHT22;41205;44.264;19.884;2023-08-06T11:30:49;588.90;2432.00
55329;DHT22;41205;44.264;19.884;2023-08-06T11:33:23;588.90;2432.00
55329;DHT22;41205;44.264;19.884;2023-08-06T11:35:54;564.10;2432.00
55329;DHT22;41205;44.264;19.884;2023-08-06T11:38:20;564.10;2432.00
55329;DHT22;41205;44.264;19.884;2023-08-06T11:40:47;564.00;2432.00
55329;DHT22;41205;44.264;19.884;2023-08-06T11:43:13;564.00;2432.00
55329;DHT22;41205;44.264;19.884;2023-08-06T11:45:40;588.90;2432.00
55329;DHT22;41205;44.264;19.884;2023-08-06T11:48:07;589.00;2432.00
55329;DHT22;41205;44.264;19.884;2023-08-06T11:50:38;589.20;2432.00
55329;DHT22;41205;44.264;19.884;2023-08-06T11:53:04;589.30;2432.00
55329;DHT22;41205;44.264;19.884;2023-08-06T11:55:30;588.90;2432.00
55329;DHT22;41205;44.264;19.884;2023-08-06T11:57:57;588.80;2432.00
55329;DHT22;41205;44.264;19.884;2023-08-06T12:00:24;564.00;2432.00
55329;DHT22;41205;44.264;19.884;2023-08-06T12:02:50;564.10;2432.00
55329;DHT22;41205;44.264;19.884;2023-08-06T12:05:19;588.90;2432.00
55329;DHT22;41205;44.264;19.884;2023-08-06T12:07:57;589.00;2432.00
55329;DHT22;41205;44.264;19.884;2023-08-06T12:10:25;588.90;2432.00
55329;DHT22;41205;44.264;19.884;2023-08-06T12:12:51;589.20;2432.00
55329;DHT22;41205;44.264;19.884;2023-08-06T12:15:17;589.40;2432.00
55329;DHT22;41205;44.264;19.884;2023-08-06T12:17:44;614.40;2432.00
55329;DHT22;41205;44.264;19.884;2023-08-06T12:20:10;614.70;2432.00
55329;DHT22;41205;44.264;19.884;2023-08-06T12:22:36;640.00;2432.00
55329;DHT22;41205;44.264;19.884;2023-08-06T12:25:05;640.30;2432.00
55329;DHT22;41205;44.264;19.884;2023-08-06T12:27:34;640.70;2432.00
55329;DHT22;41205;44.264;19.884;2023-08-06T12:30:00;640.90;2432.00
55329;DHT22;41205;44.264;19.884;2023-08-06T12:32:26;640.80;2432.00
55329;DHT22;41205;44.264;19.884;2023-08-06T12:34:52;640.80;2432.00
55329;DHT22;41205;44.264;19.884;2023-08-06T12:37:17;640.50;2432.00
55329;DHT22;41205;44.264;19.884;2023-08-06T12:39:43;640.20;2432.00
55329;DHT22;41205;44.264;19.884;2023-08-06T12:42:09;640.00;2432.00
55329;DHT22;41205;44.264;19.884;2023-08-06T12:44:36;640.00;2432.00
55329;DHT22;41205;44.264;19.884;2023-08-06T12:47:02;640.10;2432.00
55329;DHT22;41205;44.264;19.884;2023-08-06T12:49:28;640.10;2432.00
55329;DHT22;41205;44.264;19.884;2023-08-06T12:51:55;640.10;2432.00
55329;DHT22;41205;44.264;19.884;2023-08-06T12:54:22;640.20;2432.00
55329;DHT22;41205;44.264;19.884;2023-08-06T12:56:48;640.20;2432.00
55329;DHT22;41205;44.264;19.884;2023-08-06T12:59:16;640.20;2432.00
55329;DHT22;41205;44.264;19.884;2023-08-06T13:01:42;640.50;2432.00
55329;DHT22;41205;44.264;19.884;2023-08-06T13:04:08;640.70;2432.00
55329;DHT22;41205;44.264;19.884;2023-08-06T13:06:35;640.80;2432.00
55329;DHT22;41205;44.264;19.884;2023-08-06T13:09:12;665.80;2432.00
55329;DHT22;41205;44.264;19.884;2023-08-06T13:11:40;665.70;2432.00
55329;DHT22;41205;44.264;19.884;2023-08-06T13:14:13;665.80;2432.00
55329;DHT22;41205;44.264;19.884;2023-08-06T13:16:40;666.00;2432.00
55329;DHT22;41205;44.264;19.884;2023-08-06T13:19:07;666.00;2432.00
55329;DHT22;41205;44.264;19.884;2023-08-06T13:24:05;666.00;2432.00
55329;DHT22;41205;44.264;19.884;2023-08-06T13:26:31;666.20;2432.00
55329;DHT22;41205;44.264;19.884;2023-08-06T13:28:58;666.20;2432.00
55329;DHT22;41205;44.264;19.884;2023-08-06T13:31:24;666.20;2432.00
55329;DHT22;41205;44.264;19.884;2023-08-06T13:33:50;665.90;2432.00
55329;DHT22;41205;44.264;19.884;2023-08-06T13:36:18;666.50;2432.00
55329;DHT22;41205;44.264;19.884;2023-08-06T13:38:44;666.50;2432.00
55329;DHT22;41205;44.264;19.884;2023-08-06T13:41:10;666.30;2432.00
55329;DHT22;41205;44.264;19.884;2023-08-06T13:43:36;666.10;2432.00
55329;DHT22;41205;44.264;19.884;2023-08-06T13:46:01;640.90;2432.00
55329;DHT22;41205;44.264;19.884;2023-08-06T13:48:27;640.60;2432.00
55329;DHT22;41205;44.264;19.884;2023-08-06T13:50:53;640.40;2432.00
55329;DHT22;41205;44.264;19.884;2023-08-06T13:53:18;640.10;2432.00
55329;DHT22;41205;44.264;19.884;2023-08-06T13:55:44;615.10;2432.00
55329;DHT22;41205;44.264;19.884;2023-08-06T13:58:10;614.70;2432.00
55329;DHT22;41205;44.264;19.884;2023-08-06T14:00:36;614.50;2432.00
55329;DHT22;41205;44.264;19.884;2023-08-06T14:03:02;589.70;2432.00
55329;DHT22;41205;44.264;19.884;2023-08-06T14:05:28;589.40;2432.00
55329;DHT22;41205;44.264;19.884;2023-08-06T14:07:53;588.90;2432.00
55329;DHT22;41205;44.264;19.884;2023-08-06T14:10:19;563.80;2432.00
55329;DHT22;41205;44.264;19.884;2023-08-06T14:12:45;563.30;2432.00
55329;DHT22;41205;44.264;19.884;2023-08-06T14:15:11;538.10;2406.40
55329;DHT22;41205;44.264;19.884;2023-08-06T14:17:36;537.90;2406.40
55329;DHT22;41205;44.264;19.884;2023-08-06T14:20:03;537.90;2406.40
55329;DHT22;41205;44.264;19.884;2023-08-06T14:22:30;537.70;2406.40
55329;DHT22;41205;44.264;19.884;2023-08-06T14:24:59;537.80;2406.40
55329;DHT22;41205;44.264;19.884;2023-08-06T14:27:25;537.60;2406.40
55329;DHT22;41205;44.264;19.884;2023-08-06T14:29:51;537.60;2406.40
55329;DHT22;41205;44.264;19.884;2023-08-06T14:32:16;512.80;2380.80
55329;DHT22;41205;44.264;19.884;2023-08-06T14:34:44;537.60;2406.40
55329;DHT22;41205;44.264;19.884;2023-08-06T14:37:10;537.70;2406.40
55329;DHT22;41205;44.264;19.884;2023-08-06T14:39:36;537.60;2406.40
55329;DHT22;41205;44.264;19.884;2023-08-06T14:42:02;537.60;2406.40
55329;DHT22;41205;44.264;19.884;2023-08-06T14:44:28;537.80;2406.40
55329;DHT22;41205;44.264;19.884;2023-08-06T14:46:54;538.00;2406.40
55329;DHT22;41205;44.264;19.884;2023-08-06T14:49:19;538.10;2406.40
55329;DHT22;41205;44.264;19.884;2023-08-06T14:51:45;563.20;2432.00
55329;DHT22;41205;44.264;19.884;2023-08-06T14:54:11;563.60;2432.00
55329;DHT22;41205;44.264;19.884;2023-08-06T14:56:37;563.60;2432.00